sensor_id;sensor_type;location;lat;lon;timestamp;P1;durP1;ratioP1;P2;durP2;ratioP2
3415;SDS011;1721;51.238;9.562;2022-08-01T00:00:02;1.93;;;0.60;;
3415;SDS011;1721;51.238;9.562;2022-08-01T00:02:31;1.60;;;0.50;;
3415;SDS011;1721;51.238;9.562;2022-08-01T00:04:56;5.65;;;0.85;;
3415;SDS011;1721;51.238;9.562;2022-08-01T00:07:22;2.10;;;0.80;;
3415;SDS011;1721;51.238;9.562;2022-08-01T00:09:48;2.00;;;0.60;;
3415;SDS011;1721;51.238;9.562;2022-08-01T00:12:13;2.35;;;0.75;;
3415;SDS011;1721;51.238;9.562;2022-08-01T00:14:39;1.80;;;0.60;;
3415;SDS011;1721;51.238;9.562;2022-08-01T00:17:04;3.40;;;0.88;;
3415;SDS011;1721;51.238;9.562;2022-08-01T00:19:30;2.00;;;0.70;;
3415;SDS011;1721;51.238;9.562;2022-08-01T00:21:56;2.10;;;0.73;;
3415;SDS011;1721;51.238;9.562;2022-08-01T00:24:22;1.70;;;0.50;;
3415;SDS011;1721;51.238;9.562;2022-08-01T00:26:48;1.67;;;0.50;;
3415;SDS011;1721;51.238;9.562;2022-08-01T00:29:14;2.00;;;0.70;;
3415;SDS011;1721;51.238;9.562;2022-08-01T00:31:39;2.90;;;0.90;;
3415;SDS011;1721;51.238;9.562;2022-08-01T00:34:05;3.10;;;0.60;;
3415;SDS011;1721;51.238;9.562;2022-08-01T00:36:32;2.10;;;0.50;;
3415;SDS011;1721;51.238;9.562;2022-08-01T00:38:57;2.00;;;0.70;;
3415;SDS011;1721;51.238;9.562;2022-08-01T00:41:23;1.80;;;0.50;;
3415;SDS011;1721;51.238;9.562;2022-08-01T00:43:49;1.80;;;0.60;;
3415;SDS011;1721;51.238;9.562;2022-08-01T00:46:14;2.30;;;0.60;;
3415;SDS011;1721;51.238;9.562;2022-08-01T00:48:40;2.20;;;0.70;;
3415;SDS011;1721;51.238;9.562;2022-08-01T00:51:05;2.00;;;0.53;;
3415;SDS011;1721;51.238;9.562;2022-08-01T00:53:33;2.40;;;0.70;;
3415;SDS011;1721;51.238;9.562;2022-08-01T00:55:59;2.08;;;0.70;;
3415;SDS011;1721;51.238;9.562;2022-08-01T00:58:25;2.22;;;0.70;;
3415;SDS011;1721;51.238;9.562;2022-08-01T01:00:53;1.70;;;0.50;;
3415;SDS011;1721;51.238;9.562;2022-08-01T01:03:19;1.88;;;0.55;;
3415;SDS011;1721;51.238;9.562;2022-08-01T01:05:48;2.50;;;0.60;;
3415;SDS011;1721;51.238;9.562;2022-08-01T01:08:30;2.00;;;0.70;;
3415;SDS011;1721;51.238;9.562;2022-08-01T01:11:09;1.70;;;0.50;;
3415;SDS011;1721;51.238;9.562;2022-08-01T01:13:44;1.70;;;0.60;;
3415;SDS011;1721;51.238;9.562;2022-08-01T01:16:15;2.60;;;0.80;;
3415;SDS011;1721;51.238;9.562;2022-08-01T01:18:51;2.42;;;0.60;;
3415;SDS011;1721;51.238;9.562;2022-08-01T01:24:01;1.90;;;0.60;;
3415;SDS011;1721;51.238;9.562;2022-08-01T01:27:01;1.80;;;0.50;;
3415;SDS011;1721;51.238;9.562;2022-08-01T01:29:31;2.05;;;0.70;;
3415;SDS011;1721;51.238;9.562;2022-08-01T01:32:04;1.70;;;0.57;;
3415;SDS011;1721;51.238;9.562;2022-08-01T01:34:50;2.00;;;0.60;;
3415;SDS011;1721;51.238;9.562;2022-08-01T01:37:20;1.90;;;0.60;;
3415;SDS011;1721;51.238;9.562;2022-08-01T01:39:48;1.70;;;0.60;;
3415;SDS011;1721;51.238;9.562;2022-08-01T01:42:16;1.92;;;0.50;;
3415;SDS011;1721;51.238;9.562;2022-08-01T01:44:43;3.60;;;0.90;;
3415;SDS011;1721;51.238;9.562;2022-08-01T01:47:14;1.90;;;0.70;;
3415;SDS011;1721;51.238;9.562;2022-08-01T01:49:41;2.30;;;0.60;;
3415;SDS011;1721;51.238;9.562;2022-08-01T01:52:09;1.70;;;0.50;;
3415;SDS011;1721;51.238;9.562;2022-08-01T01:54:39;2.00;;;0.70;;
3415;SDS011;1721;51.238;9.562;2022-08-01T01:57:07;3.72;;;0.70;;
3415;SDS011;1721;51.238;9.562;2022-08-01T01:59:36;1.63;;;0.52;;
3415;SDS011;1721;51.238;9.562;2022-08-01T02:02:03;2.20;;;0.70;;
3415;SDS011;1721;51.238;9.562;2022-08-01T02:04:30;2.40;;;0.90;;
3415;SDS011;1721;51.238;9.562;2022-08-01T02:06:58;2.20;;;0.60;;
3415;SDS011;1721;51.238;9.562;2022-08-01T02:09:26;2.05;;;0.70;;
3415;SDS011;1721;51.238;9.562;2022-08-01T02:11:53;1.70;;;0.50;;
3415;SDS011;1721;51.238;9.562;2022-08-01T02:14:20;2.80;;;1.10;;
3415;SDS011;1721;51.238;9.562;2022-08-01T02:16:48;2.00;;;0.60;;
3415;SDS011;1721;51.238;9.562;2022-08-01T02:19:17;1.90;;;0.60;;
3415;SDS011;1721;51.238;9.562;2022-08-01T02:21:49;1.70;;;0.50;;
3415;SDS011;1721;51.238;9.562;2022-08-01T02:24:19;1.80;;;0.60;;
3415;SDS011;1721;51.238;9.562;2022-08-01T02:26:53;1.80;;;0.60;;
3415;SDS011;1721;51.238;9.562;2022-08-01T02:29:27;1.90;;;0.60;;
3415;SDS011;1721;51.238;9.562;2022-08-01T02:32:02;1.70;;;0.50;;
3415;SDS011;1721;51.238;9.562;2022-08-01T02:34:31;2.10;;;0.70;;
3415;SDS011;1721;51.238;9.562;2022-08-01T02:37:00;1.77;;;0.60;;
3415;SDS011;1721;51.238;9.562;2022-08-01T02:39:28;2.33;;;0.77;;
3415;SDS011;1721;51.238;9.562;2022-08-01T02:41:57;2.55;;;0.80;;
3415;SDS011;1721;51.238;9.562;2022-08-01T02:44:27;2.88;;;0.70;;
3415;SDS011;1721;51.238;9.562;2022-08-01T02:47:02;2.10;;;0.60;;
3415;SDS011;1721;51.238;9.562;2022-08-01T02:49:32;2.17;;;0.98;;
3415;SDS011;1721;51.238;9.562;2022-08-01T02:52:07;1.80;;;0.50;;
3415;SDS011;1721;51.238;9.562;2022-08-01T02:54:35;3.40;;;1.00;;
3415;SDS011;1721;51.238;9.562;2022-08-01T02:57:02;2.40;;;0.90;;
3415;SDS011;1721;51.238;9.562;2022-08-01T02:59:29;2.10;;;0.70;;
3415;SDS011;1721;51.238;9.562;2022-08-01T03:01:56;2.10;;;0.67;;
3415;SDS011;1721;51.238;9.562;2022-08-01T03:04:24;4.20;;;1.00;;
3415;SDS011;1721;51.238;9.562;2022-08-01T03:06:51;1.75;;;0.55;;
3415;SDS011;1721;51.238;9.562;2022-08-01T03:09:19;2.40;;;0.80;;
3415;SDS011;1721;51.238;9.562;2022-08-01T03:11:46;2.00;;;0.60;;
3415;SDS011;1721;51.238;9.562;2022-08-01T03:14:14;2.50;;;0.57;;
3415;SDS011;1721;51.238;9.562;2022-08-01T03:16:41;2.90;;;0.80;;
3415;SDS011;1721;51.238;9.562;2022-08-01T03:19:08;1.70;;;0.60;;
3415;SDS011;1721;51.238;9.562;2022-08-01T03:21:36;2.00;;;0.80;;
3415;SDS011;1721;51.238;9.562;2022-08-01T03:24:03;2.50;;;0.70;;
3415;SDS011;1721;51.238;9.562;2022-08-01T03:26:31;2.05;;;0.60;;
3415;SDS011;1721;51.238;9.562;2022-08-01T03:29:02;1.65;;;0.57;;
3415;SDS011;1721;51.238;9.562;2022-08-01T03:31:34;1.90;;;0.60;;
3415;SDS011;1721;51.238;9.562;2022-08-01T03:34:02;1.80;;;0.55;;
3415;SDS011;1721;51.238;9.562;2022-08-01T03:36:28;2.50;;;0.70;;
3415;SDS011;1721;51.238;9.562;2022-08-01T03:38:58;2.00;;;0.70;;
3415;SDS011;1721;51.238;9.562;2022-08-01T03:41:28;2.30;;;0.70;;
3415;SDS011;1721;51.238;9.562;2022-08-01T03:44:00;4.35;;;0.80;;
3415;SDS011;1721;51.238;9.562;2022-08-01T03:46:46;2.30;;;1.00;;
3415;SDS011;1721;51.238;9.562;2022-08-01T03:49:16;2.80;;;0.63;;
3415;SDS011;1721;51.238;9.562;2022-08-01T03:51:44;2.20;;;0.60;;
3415;SDS011;1721;51.238;9.562;2022-08-01T03:54:13;2.80;;;0.90;;
3415;SDS011;1721;51.238;9.562;2022-08-01T03:56:41;2.20;;;0.70;;
3415;SDS011;1721;51.238;9.562;2022-08-01T03:59:08;1.88;;;0.77;;
3415;SDS011;1721;51.238;9.562;2022-08-01T04:01:34;2.03;;;0.60;;
3415;SDS011;1721;51.238;9.562;2022-08-01T04:04:00;2.50;;;0.80;;
3415;SDS011;1721;51.238;9.562;2022-08-01T04:06:26;1.90;;;0.60;;
3415;SDS011;1721;51.238;9.562;2022-08-01T04:08:52;2.10;;;0.70;;
3415;SDS011;1721;51.238;9.562;2022-08-01T04:11:23;1.70;;;0.60;;
3415;SDS011;1721;51.238;9.562;2022-08-01T04:13:50;2.38;;;0.82;;
3415;SDS011;1721;51.238;9.562;2022-08-01T04:16:17;1.70;;;0.60;;
3415;SDS011;1721;51.238;9.562;2022-08-01T04:18:43;3.10;;;1.20;;
3415;SDS011;1721;51.238;9.562;2022-08-01T04:21:08;1.77;;;0.57;;
3415;SDS011;1721;51.238;9.562;2022-08-01T04:23:34;2.00;;;0.60;;
3415;SDS011;1721;51.238;9.562;2022-08-01T04:26:00;2.90;;;0.70;;
3415;SDS011;1721;51.238;9.562;2022-08-01T04:28:29;1.90;;;0.60;;
3415;SDS011;1721;51.238;9.562;2022-08-01T04:30:57;1.90;;;0.60;;
3415;SDS011;1721;51.238;9.562;2022-08-01T04:33:24;2.13;;;0.70;;
3415;SDS011;1721;51.238;9.562;2022-08-01T04:35:53;1.80;;;0.60;;
3415;SDS011;1721;51.238;9.562;2022-08-01T04:38:21;1.80;;;0.60;;
3415;SDS011;1721;51.238;9.562;2022-08-01T04:40:52;1.70;;;0.53;;
3415;SDS011;1721;51.238;9.562;2022-08-01T04:43:18;2.58;;;0.80;;
3415;SDS011;1721;51.238;9.562;2022-08-01T04:45:44;4.75;;;1.00;;
3415;SDS011;1721;51.238;9.562;2022-08-01T04:48:11;2.20;;;0.80;;
3415;SDS011;1721;51.238;9.562;2022-08-01T04:50:40;2.40;;;0.88;;
3415;SDS011;1721;51.238;9.562;2022-08-01T04:53:11;2.50;;;1.10;;
3415;SDS011;1721;51.238;9.562;2022-08-01T04:55:42;2.00;;;0.60;;
3415;SDS011;1721;51.238;9.562;2022-08-01T04:58:09;2.78;;;0.80;;
3415;SDS011;1721;51.238;9.562;2022-08-01T05:00:35;2.00;;;0.60;;
3415;SDS011;1721;51.238;9.562;2022-08-01T05:03:01;1.73;;;0.60;;
3415;SDS011;1721;51.238;9.562;2022-08-01T05:05:26;1.70;;;0.70;;
3415;SDS011;1721;51.238;9.562;2022-08-01T05:07:52;3.00;;;0.80;;
3415;SDS011;1721;51.238;9.562;2022-08-01T05:10:18;1.83;;;0.60;;
3415;SDS011;1721;51.238;9.562;2022-08-01T05:12:43;2.50;;;0.70;;
3415;SDS011;1721;51.238;9.562;2022-08-01T05:15:09;5.20;;;0.80;;
3415;SDS011;1721;51.238;9.562;2022-08-01T05:17:34;2.00;;;0.60;;
3415;SDS011;1721;51.238;9.562;2022-08-01T05:20:00;8.00;;;0.70;;
3415;SDS011;1721;51.238;9.562;2022-08-01T05:22:26;1.70;;;0.60;;
3415;SDS011;1721;51.238;9.562;2022-08-01T05:24:52;2.83;;;0.80;;
3415;SDS011;1721;51.238;9.562;2022-08-01T05:27:17;2.07;;;0.60;;
3415;SDS011;1721;51.238;9.562;2022-08-01T05:29:43;1.70;;;0.50;;
3415;SDS011;1721;51.238;9.562;2022-08-01T05:32:09;1.60;;;0.50;;
3415;SDS011;1721;51.238;9.562;2022-08-01T05:34:34;2.30;;;0.90;;
3415;SDS011;1721;51.238;9.562;2022-08-01T05:37:00;2.10;;;0.60;;
3415;SDS011;1721;51.238;9.562;2022-08-01T05:39:26;2.30;;;0.80;;
3415;SDS011;1721;51.238;9.562;2022-08-01T05:41:52;1.77;;;0.68;;
3415;SDS011;1721;51.238;9.562;2022-08-01T05:44:17;1.80;;;0.60;;
3415;SDS011;1721;51.238;9.562;2022-08-01T05:46:43;2.80;;;0.80;;
3415;SDS011;1721;51.238;9.562;2022-08-01T05:49:08;2.08;;;0.70;;
3415;SDS011;1721;51.238;9.562;2022-08-01T05:51:34;1.80;;;0.60;;
3415;SDS011;1721;51.238;9.562;2022-08-01T05:53:59;2.10;;;0.70;;
3415;SDS011;1721;51.238;9.562;2022-08-01T05:56:25;2.30;;;0.60;;
3415;SDS011;1721;51.238;9.562;2022-08-01T05:58:51;2.40;;;0.90;;
3415;SDS011;1721;51.238;9.562;2022-08-01T06:01:17;2.20;;;0.80;;
3415;SDS011;1721;51.238;9.562;2022-08-01T06:03:43;2.20;;;0.70;;
3415;SDS011;1721;51.238;9.562;2022-08-01T06:06:09;2.75;;;0.60;;
3415;SDS011;1721;51.238;9.562;2022-08-01T06:08:34;2.17;;;0.60;;
3415;SDS011;1721;51.238;9.562;2022-08-01T06:11:00;1.60;;;0.50;;
3415;SDS011;1721;51.238;9.562;2022-08-01T06:13:25;2.20;;;0.60;;
3415;SDS011;1721;51.238;9.562;2022-08-01T06:15:51;2.67;;;0.80;;
3415;SDS011;1721;51.238;9.562;2022-08-01T06:18:17;2.60;;;0.88;;
3415;SDS011;1721;51.238;9.562;2022-08-01T06:20:43;1.80;;;0.70;;
3415;SDS011;1721;51.238;9.562;2022-08-01T06:23:08;2.67;;;0.63;;
3415;SDS011;1721;51.238;9.562;2022-08-01T06:25:34;2.70;;;0.70;;
3415;SDS011;1721;51.238;9.562;2022-08-01T06:28:00;1.80;;;0.50;;
3415;SDS011;1721;51.238;9.562;2022-08-01T06:30:26;1.60;;;0.50;;
3415;SDS011;1721;51.238;9.562;2022-08-01T06:32:52;2.00;;;0.70;;
3415;SDS011;1721;51.238;9.562;2022-08-01T06:35:17;2.10;;;0.70;;
3415;SDS011;1721;51.238;9.562;2022-08-01T06:37:43;1.95;;;0.63;;
3415;SDS011;1721;51.238;9.562;2022-08-01T06:40:10;1.90;;;0.68;;
3415;SDS011;1721;51.238;9.562;2022-08-01T06:42:37;1.60;;;0.50;;
3415;SDS011;1721;51.238;9.562;2022-08-01T06:45:10;1.80;;;0.60;;
3415;SDS011;1721;51.238;9.562;2022-08-01T06:47:37;1.87;;;0.70;;
3415;SDS011;1721;51.238;9.562;2022-08-01T06:50:04;2.10;;;0.70;;
3415;SDS011;1721;51.238;9.562;2022-08-01T06:52:31;1.90;;;0.60;;
3415;SDS011;1721;51.238;9.562;2022-08-01T06:54:56;4.80;;;0.70;;
3415;SDS011;1721;51.238;9.562;2022-08-01T06:57:22;2.10;;;0.60;;
3415;SDS011;1721;51.238;9.562;2022-08-01T06:59:47;2.08;;;0.80;;
3415;SDS011;1721;51.238;9.562;2022-08-01T07:02:13;2.20;;;0.70;;
3415;SDS011;1721;51.238;9.562;2022-08-01T07:04:39;2.50;;;0.90;;
3415;SDS011;1721;51.238;9.562;2022-08-01T07:07:04;1.80;;;0.60;;
3415;SDS011;1721;51.238;9.562;2022-08-01T07:09:30;3.80;;;0.67;;
3415;SDS011;1721;51.238;9.562;2022-08-01T07:11:55;1.90;;;0.70;;
3415;SDS011;1721;51.238;9.562;2022-08-01T07:14:22;2.10;;;0.80;;
3415;SDS011;1721;51.238;9.562;2022-08-01T07:16:47;1.70;;;0.60;;
3415;SDS011;1721;51.238;9.562;2022-08-01T07:19:13;2.20;;;0.75;;
3415;SDS011;1721;51.238;9.562;2022-08-01T07:21:39;2.40;;;0.80;;
3415;SDS011;1721;51.238;9.562;2022-08-01T07:24:05;1.70;;;0.60;;
3415;SDS011;1721;51.238;9.562;2022-08-01T07:26:32;1.70;;;0.60;;
3415;SDS011;1721;51.238;9.562;2022-08-01T07:28:57;2.60;;;0.70;;
3415;SDS011;1721;51.238;9.562;2022-08-01T07:31:23;1.60;;;0.50;;
3415;SDS011;1721;51.238;9.562;2022-08-01T07:33:49;2.20;;;0.60;;
3415;SDS011;1721;51.238;9.562;2022-08-01T07:36:15;2.30;;;0.60;;
3415;SDS011;1721;51.238;9.562;2022-08-01T07:38:41;2.10;;;0.60;;
3415;SDS011;1721;51.238;9.562;2022-08-01T07:41:07;1.80;;;0.60;;
3415;SDS011;1721;51.238;9.562;2022-08-01T07:43:33;2.30;;;0.80;;
3415;SDS011;1721;51.238;9.562;2022-08-01T07:46:01;1.60;;;0.60;;
3415;SDS011;1721;51.238;9.562;2022-08-01T07:48:27;3.20;;;0.70;;
3415;SDS011;1721;51.238;9.562;2022-08-01T07:50:52;2.10;;;0.70;;
3415;SDS011;1721;51.238;9.562;2022-08-01T07:53:18;2.97;;;0.90;;
3415;SDS011;1721;51.238;9.562;2022-08-01T07:55:43;2.00;;;0.70;;
3415;SDS011;1721;51.238;9.562;2022-08-01T07:58:09;1.90;;;0.70;;
3415;SDS011;1721;51.238;9.562;2022-08-01T08:00:34;2.20;;;0.90;;
3415;SDS011;1721;51.238;9.562;2022-08-01T08:03:00;4.30;;;0.70;;
3415;SDS011;1721;51.238;9.562;2022-08-01T08:05:26;2.80;;;0.70;;
3415;SDS011;1721;51.238;9.562;2022-08-01T08:07:52;1.70;;;0.60;;
3415;SDS011;1721;51.238;9.562;2022-08-01T08:10:18;2.00;;;0.60;;
3415;SDS011;1721;51.238;9.562;2022-08-01T08:12:43;2.10;;;0.60;;
3415;SDS011;1721;51.238;9.562;2022-08-01T08:15:10;1.80;;;0.60;;
3415;SDS011;1721;51.238;9.562;2022-08-01T08:17:36;2.10;;;0.80;;
3415;SDS011;1721;51.238;9.562;2022-08-01T08:20:03;1.90;;;0.70;;
3415;SDS011;1721;51.238;9.562;2022-08-01T08:22:32;2.20;;;0.60;;
3415;SDS011;1721;51.238;9.562;2022-08-01T08:24:58;2.00;;;0.70;;
3415;SDS011;1721;51.238;9.562;2022-08-01T08:27:24;1.60;;;0.50;;
3415;SDS011;1721;51.238;9.562;2022-08-01T08:29:50;2.50;;;0.80;;
3415;SDS011;1721;51.238;9.562;2022-08-01T08:32:15;3.60;;;1.00;;
3415;SDS011;1721;51.238;9.562;2022-08-01T08:34:41;2.00;;;0.60;;
3415;SDS011;1721;51.238;9.562;2022-08-01T08:37:07;1.70;;;0.50;;
3415;SDS011;1721;51.238;9.562;2022-08-01T08:39:33;2.00;;;0.60;;
3415;SDS011;1721;51.238;9.562;2022-08-01T08:41:59;1.70;;;0.50;;
3415;SDS011;1721;51.238;9.562;2022-08-01T08:44:26;1.98;;;0.68;;
3415;SDS011;1721;51.238;9.562;2022-08-01T08:46:52;2.00;;;0.70;;
3415;SDS011;1721;51.238;9.562;2022-08-01T08:49:22;2.08;;;0.65;;
3415;SDS011;1721;51.238;9.562;2022-08-01T08:51:50;2.90;;;0.80;;
3415;SDS011;1721;51.238;9.562;2022-08-01T08:54:17;1.90;;;0.70;;
3415;SDS011;1721;51.238;9.562;2022-08-01T08:56:45;2.30;;;0.88;;
3415;SDS011;1721;51.238;9.562;2022-08-01T08:59:12;1.80;;;0.68;;
3415;SDS011;1721;51.238;9.562;2022-08-01T09:01:39;2.50;;;0.60;;
3415;SDS011;1721;51.238;9.562;2022-08-01T09:04:05;2.20;;;0.70;;
3415;SDS011;1721;51.238;9.562;2022-08-01T09:06:32;2.30;;;0.73;;
3415;SDS011;1721;51.238;9.562;2022-08-01T09:08:58;1.75;;;0.55;;
3415;SDS011;1721;51.238;9.562;2022-08-01T09:11:24;1.88;;;0.60;;
3415;SDS011;1721;51.238;9.562;2022-08-01T09:16:41;2.75;;;0.65;;
3415;SDS011;1721;51.238;9.562;2022-08-01T09:19:12;1.80;;;0.60;;
3415;SDS011;1721;51.238;9.562;2022-08-01T09:22:16;1.70;;;0.60;;
3415;SDS011;1721;51.238;9.562;2022-08-01T09:24:36;1.90;;;0.68;;
3415;SDS011;1721;51.238;9.562;2022-08-01T09:27:14;2.03;;;0.63;;
3415;SDS011;1721;51.238;9.562;2022-08-01T09:29:51;2.05;;;0.70;;
3415;SDS011;1721;51.238;9.562;2022-08-01T09:32:17;2.30;;;0.70;;
3415;SDS011;1721;51.238;9.562;2022-08-01T09:34:43;1.98;;;0.70;;
3415;SDS011;1721;51.238;9.562;2022-08-01T09:37:11;1.85;;;0.50;;
3415;SDS011;1721;51.238;9.562;2022-08-01T09:39:37;2.70;;;0.60;;
3415;SDS011;1721;51.238;9.562;2022-08-01T09:42:22;2.00;;;0.80;;
3415;SDS011;1721;51.238;9.562;2022-08-01T09:44:48;1.70;;;0.60;;
3415;SDS011;1721;51.238;9.562;2022-08-01T09:47:14;1.90;;;0.60;;
3415;SDS011;1721;51.238;9.562;2022-08-01T09:49:41;2.10;;;0.60;;
3415;SDS011;1721;51.238;9.562;2022-08-01T09:52:12;4.30;;;1.30;;
3415;SDS011;1721;51.238;9.562;2022-08-01T09:54:52;3.53;;;1.60;;
3415;SDS011;1721;51.238;9.562;2022-08-01T09:57:23;4.77;;;1.50;;
3415;SDS011;1721;51.238;9.562;2022-08-01T09:59:49;3.55;;;1.30;;
3415;SDS011;1721;51.238;9.562;2022-08-01T10:04:54;4.57;;;1.80;;
3415;SDS011;1721;51.238;9.562;2022-08-01T10:07:20;5.93;;;1.80;;
3415;SDS011;1721;51.238;9.562;2022-08-01T10:09:46;4.75;;;1.90;;
3415;SDS011;1721;51.238;9.562;2022-08-01T10:12:13;4.10;;;1.70;;
3415;SDS011;1721;51.238;9.562;2022-08-01T10:14:42;4.38;;;2.10;;
3415;SDS011;1721;51.238;9.562;2022-08-01T10:17:09;4.13;;;1.88;;
3415;SDS011;1721;51.238;9.562;2022-08-01T10:19:37;4.20;;;1.98;;
3415;SDS011;1721;51.238;9.562;2022-08-01T10:22:07;4.40;;;1.80;;
3415;SDS011;1721;51.238;9.562;2022-08-01T10:24:35;3.60;;;1.80;;
3415;SDS011;1721;51.238;9.562;2022-08-01T10:27:06;4.10;;;2.15;;
3415;SDS011;1721;51.238;9.562;2022-08-01T10:29:39;3.47;;;1.80;;
3415;SDS011;1721;51.238;9.562;2022-08-01T10:32:06;4.25;;;2.20;;
3415;SDS011;1721;51.238;9.562;2022-08-01T10:34:34;4.97;;;2.20;;
3415;SDS011;1721;51.238;9.562;2022-08-01T10:37:01;4.00;;;2.00;;
3415;SDS011;1721;51.238;9.562;2022-08-01T10:39:27;3.80;;;1.90;;
3415;SDS011;1721;51.238;9.562;2022-08-01T10:41:55;5.07;;;2.03;;
3415;SDS011;1721;51.238;9.562;2022-08-01T10:44:21;5.68;;;2.40;;
3415;SDS011;1721;51.238;9.562;2022-08-01T10:46:50;4.50;;;2.38;;
3415;SDS011;1721;51.238;9.562;2022-08-01T10:49:21;5.10;;;2.38;;
3415;SDS011;1721;51.238;9.562;2022-08-01T10:51:50;4.80;;;2.40;;
3415;SDS011;1721;51.238;9.562;2022-08-01T10:54:16;4.70;;;2.40;;
3415;SDS011;1721;51.238;9.562;2022-08-01T10:56:46;4.90;;;2.60;;
3415;SDS011;1721;51.238;9.562;2022-08-01T10:59:24;4.25;;;1.80;;
3415;SDS011;1721;51.238;9.562;2022-08-01T11:01:57;4.03;;;2.00;;
3415;SDS011;1721;51.238;9.562;2022-08-01T11:04:34;3.90;;;2.00;;
3415;SDS011;1721;51.238;9.562;2022-08-01T11:07:23;4.40;;;2.00;;
3415;SDS011;1721;51.238;9.562;2022-08-01T11:10:04;5.60;;;1.73;;
3415;SDS011;1721;51.238;9.562;2022-08-01T11:12:38;5.20;;;2.00;;
3415;SDS011;1721;51.238;9.562;2022-08-01T11:17:35;3.70;;;0.83;;
3415;SDS011;1721;51.238;9.562;2022-08-01T11:20:12;3.07;;;1.20;;
3415;SDS011;1721;51.238;9.562;2022-08-01T11:30:48;2.50;;;1.00;;
3415;SDS011;1721;51.238;9.562;2022-08-01T11:33:16;2.40;;;0.80;;
3415;SDS011;1721;51.238;9.562;2022-08-01T11:38:37;2.70;;;1.00;;
3415;SDS011;1721;51.238;9.562;2022-08-01T11:55:07;2.60;;;0.90;;
3415;SDS011;1721;51.238;9.562;2022-08-01T11:57:34;2.40;;;0.80;;
3415;SDS011;1721;51.238;9.562;2022-08-01T12:00:18;2.30;;;0.70;;
3415;SDS011;1721;51.238;9.562;2022-08-01T12:02:44;2.30;;;0.88;;
3415;SDS011;1721;51.238;9.562;2022-08-01T12:05:12;2.80;;;0.80;;
3415;SDS011;1721;51.238;9.562;2022-08-01T12:07:42;2.33;;;0.90;;
3415;SDS011;1721;51.238;9.562;2022-08-01T12:10:09;3.25;;;1.20;;
3415;SDS011;1721;51.238;9.562;2022-08-01T12:15:12;2.10;;;0.70;;
3415;SDS011;1721;51.238;9.562;2022-08-01T12:17:39;1.90;;;0.70;;
3415;SDS011;1721;51.238;9.562;2022-08-01T12:20:13;2.58;;;0.80;;
3415;SDS011;1721;51.238;9.562;2022-08-01T12:22:41;2.70;;;0.80;;
3415;SDS011;1721;51.238;9.562;2022-08-01T12:25:09;2.00;;;0.70;;
3415;SDS011;1721;51.238;9.562;2022-08-01T12:27:36;2.38;;;0.80;;
3415;SDS011;1721;51.238;9.562;2022-08-01T12:30:07;2.00;;;0.70;;
3415;SDS011;1721;51.238;9.562;2022-08-01T12:32:35;2.40;;;0.80;;
3415;SDS011;1721;51.238;9.562;2022-08-01T12:37:40;3.00;;;0.80;;
3415;SDS011;1721;51.238;9.562;2022-08-01T12:40:14;2.25;;;0.70;;
3415;SDS011;1721;51.238;9.562;2022-08-01T12:42:51;2.80;;;0.70;;
3415;SDS011;1721;51.238;9.562;2022-08-01T12:45:19;2.25;;;0.70;;
3415;SDS011;1721;51.238;9.562;2022-08-01T12:47:53;2.05;;;0.70;;
3415;SDS011;1721;51.238;9.562;2022-08-01T12:50:20;2.50;;;0.90;;
3415;SDS011;1721;51.238;9.562;2022-08-01T12:52:48;2.40;;;0.80;;
3415;SDS011;1721;51.238;9.562;2022-08-01T12:55:15;2.10;;;0.70;;
3415;SDS011;1721;51.238;9.562;2022-08-01T12:57:44;2.50;;;0.90;;
3415;SDS011;1721;51.238;9.562;2022-08-01T13:02:44;2.60;;;1.00;;
3415;SDS011;1721;51.238;9.562;2022-08-01T13:05:11;2.72;;;1.00;;
3415;SDS011;1721;51.238;9.562;2022-08-01T13:07:44;2.60;;;1.00;;
3415;SDS011;1721;51.238;9.562;2022-08-01T13:10:12;2.83;;;1.10;;
3415;SDS011;1721;51.238;9.562;2022-08-01T13:12:39;3.00;;;1.13;;
3415;SDS011;1721;51.238;9.562;2022-08-01T13:15:18;2.97;;;1.33;;
3415;SDS011;1721;51.238;9.562;2022-08-01T13:17:49;3.33;;;1.30;;
3415;SDS011;1721;51.238;9.562;2022-08-01T13:20:29;4.20;;;1.40;;
3415;SDS011;1721;51.238;9.562;2022-08-01T13:23:10;3.00;;;1.20;;
3415;SDS011;1721;51.238;9.562;2022-08-01T13:25:51;3.25;;;1.40;;
3415;SDS011;1721;51.238;9.562;2022-08-01T13:28:19;4.20;;;1.50;;
3415;SDS011;1721;51.238;9.562;2022-08-01T13:30:53;5.53;;;1.20;;
3415;SDS011;1721;51.238;9.562;2022-08-01T13:33:22;3.20;;;1.60;;
3415;SDS011;1721;51.238;9.562;2022-08-01T13:35:50;3.08;;;1.20;;
3415;SDS011;1721;51.238;9.562;2022-08-01T13:38:16;4.60;;;1.70;;
3415;SDS011;1721;51.238;9.562;2022-08-01T13:40:42;3.40;;;1.50;;
3415;SDS011;1721;51.238;9.562;2022-08-01T13:43:08;3.30;;;1.50;;
3415;SDS011;1721;51.238;9.562;2022-08-01T13:45:33;2.80;;;1.20;;
3415;SDS011;1721;51.238;9.562;2022-08-01T13:47:59;5.50;;;1.60;;
3415;SDS011;1721;51.238;9.562;2022-08-01T13:50:25;3.60;;;1.50;;
3415;SDS011;1721;51.238;9.562;2022-08-01T13:52:51;3.10;;;1.40;;
3415;SDS011;1721;51.238;9.562;2022-08-01T13:55:16;5.60;;;1.80;;
3415;SDS011;1721;51.238;9.562;2022-08-01T13:57:42;4.27;;;1.70;;
3415;SDS011;1721;51.238;9.562;2022-08-01T14:00:10;2.90;;;1.20;;
3415;SDS011;1721;51.238;9.562;2022-08-01T14:02:36;3.72;;;1.70;;
3415;SDS011;1721;51.238;9.562;2022-08-01T14:05:01;5.00;;;1.50;;
3415;SDS011;1721;51.238;9.562;2022-08-01T14:07:27;4.60;;;1.80;;
3415;SDS011;1721;51.238;9.562;2022-08-01T14:09:53;3.83;;;1.70;;
3415;SDS011;1721;51.238;9.562;2022-08-01T14:12:18;3.90;;;1.90;;
3415;SDS011;1721;51.238;9.562;2022-08-01T14:14:44;5.75;;;1.83;;
3415;SDS011;1721;51.238;9.562;2022-08-01T14:17:10;3.58;;;1.80;;
3415;SDS011;1721;51.238;9.562;2022-08-01T14:19:36;6.25;;;1.80;;
3415;SDS011;1721;51.238;9.562;2022-08-01T14:22:01;3.60;;;1.70;;
3415;SDS011;1721;51.238;9.562;2022-08-01T14:24:27;4.17;;;1.97;;
3415;SDS011;1721;51.238;9.562;2022-08-01T14:26:52;3.97;;;1.77;;
3415;SDS011;1721;51.238;9.562;2022-08-01T14:29:18;5.30;;;1.70;;
3415;SDS011;1721;51.238;9.562;2022-08-01T14:31:44;4.90;;;1.40;;
3415;SDS011;1721;51.238;9.562;2022-08-01T14:34:09;3.27;;;1.50;;
3415;SDS011;1721;51.238;9.562;2022-08-01T14:36:35;3.10;;;1.50;;
3415;SDS011;1721;51.238;9.562;2022-08-01T14:39:01;4.32;;;1.40;;
3415;SDS011;1721;51.238;9.562;2022-08-01T14:41:27;3.83;;;1.35;;
3415;SDS011;1721;51.238;9.562;2022-08-01T14:43:52;4.30;;;1.70;;
3415;SDS011;1721;51.238;9.562;2022-08-01T14:46:18;4.10;;;1.70;;
3415;SDS011;1721;51.238;9.562;2022-08-01T14:48:44;5.30;;;1.70;;
3415;SDS011;1721;51.238;9.562;2022-08-01T14:51:09;4.73;;;1.50;;
3415;SDS011;1721;51.238;9.562;2022-08-01T14:53:35;4.20;;;1.43;;
3415;SDS011;1721;51.238;9.562;2022-08-01T14:56:02;2.63;;;1.20;;
3415;SDS011;1721;51.238;9.562;2022-08-01T14:58:28;4.22;;;1.02;;
3415;SDS011;1721;51.238;9.562;2022-08-01T15:00:53;3.83;;;1.30;;
3415;SDS011;1721;51.238;9.562;2022-08-01T15:03:20;3.30;;;1.27;;
3415;SDS011;1721;51.238;9.562;2022-08-01T15:05:46;3.30;;;1.30;;
3415;SDS011;1721;51.238;9.562;2022-08-01T15:08:11;3.20;;;1.30;;
3415;SDS011;1721;51.238;9.562;2022-08-01T15:10:37;3.60;;;1.30;;
3415;SDS011;1721;51.238;9.562;2022-08-01T15:13:02;3.50;;;1.30;;
3415;SDS011;1721;51.238;9.562;2022-08-01T15:15:28;6.18;;;1.40;;
3415;SDS011;1721;51.238;9.562;2022-08-01T15:17:54;3.05;;;1.10;;
3415;SDS011;1721;51.238;9.562;2022-08-01T15:20:20;3.00;;;1.30;;
3415;SDS011;1721;51.238;9.562;2022-08-01T15:22:45;3.10;;;1.40;;
3415;SDS011;1721;51.238;9.562;2022-08-01T15:25:12;3.00;;;1.33;;
3415;SDS011;1721;51.238;9.562;2022-08-01T15:27:38;3.80;;;1.20;;
3415;SDS011;1721;51.238;9.562;2022-08-01T15:30:04;3.50;;;1.60;;
3415;SDS011;1721;51.238;9.562;2022-08-01T15:32:30;3.60;;;1.25;;
3415;SDS011;1721;51.238;9.562;2022-08-01T15:34:55;4.10;;;1.40;;
3415;SDS011;1721;51.238;9.562;2022-08-01T15:37:21;2.80;;;1.23;;
3415;SDS011;1721;51.238;9.562;2022-08-01T15:39:47;2.70;;;1.20;;
3415;SDS011;1721;51.238;9.562;2022-08-01T15:42:13;2.88;;;1.20;;
3415;SDS011;1721;51.238;9.562;2022-08-01T15:44:40;3.22;;;1.20;;
3415;SDS011;1721;51.238;9.562;2022-08-01T15:47:06;3.88;;;1.40;;
3415;SDS011;1721;51.238;9.562;2022-08-01T15:49:33;2.42;;;1.10;;
3415;SDS011;1721;51.238;9.562;2022-08-01T15:52:01;3.30;;;1.30;;
3415;SDS011;1721;51.238;9.562;2022-08-01T15:54:27;3.92;;;1.10;;
3415;SDS011;1721;51.238;9.562;2022-08-01T15:56:53;2.70;;;1.07;;
3415;SDS011;1721;51.238;9.562;2022-08-01T15:59:18;3.70;;;1.20;;
3415;SDS011;1721;51.238;9.562;2022-08-01T16:01:44;2.60;;;1.10;;